Observation data for Turkey on 11/17/2019      Previous  Date       Current Mesonet Observations  Soil Data  Daily Summary Page  Observations in Plain Language
KTUR 170600Z 10002KT 09/03 A2995 RMK A01 T00920033  RH  067%=      5-min Rain = 0
KTUR 170605Z 11002KT 09/03 A2995 RMK A01 T00880033  RH  069%=      5-min Rain = 0
KTUR 170610Z 17003KT 10/03 A2994 RMK A01 T00950034  RH  066%=      5-min Rain = 0
KTUR 170615Z 18004KT 10/03 A2994 RMK A01 T01020034  RH  064%=      5-min Rain = 0
KTUR 170620Z 20004KT 10/03 A2994 RMK A01 T01030034  RH  063%=      5-min Rain = 0
KTUR 170625Z 21003KT 11/04 A2995 RMK A01 T01050035  RH  063%=      5-min Rain = 0
KTUR 170630Z 22005KT 11/03 A2995 RMK A01 T01050034  RH  062%=      5-min Rain = 0
KTUR 170635Z 23005KT 10/04 A2996 RMK A01 T01030035  RH  063%=      5-min Rain = 0
KTUR 170640Z 24004KT 10/04 A2996 RMK A01 T01030035  RH  064%=      5-min Rain = 0
KTUR 170645Z 23004KT 10/04 A2996 RMK A01 T01030035  RH  063%=      5-min Rain = 0
KTUR 170650Z 24004KT 11/04 A2996 RMK A01 T01050035  RH  062%=      5-min Rain = 0
KTUR 170655Z 23005KT 11/04 A2995 RMK A01 T01070036  RH  062%=      5-min Rain = 0
KTUR 170700Z 22005KT 10/04 A2996 RMK A01 T01020035  RH  064%=      5-min Rain = 0
KTUR 170705Z 23005KT 10/04 A2995 RMK A01 T00960035  RH  066%=      5-min Rain = 0
KTUR 170710Z 26003KT 09/04 A2995 RMK A01 T00930035  RH  068%=      5-min Rain = 0
KTUR 170715Z 25003KT 09/04 A2995 RMK A01 T00930036  RH  068%=      5-min Rain = 0
KTUR 170720Z 27004KT 10/03 A2995 RMK A01 T00980034  RH  065%=      5-min Rain = 0
KTUR 170725Z 29006KT 09/03 A2995 RMK A01 T00910034  RH  068%=      5-min Rain = 0
KTUR 170730Z 30007KT 09/03 A2995 RMK A01 T00880033  RH  069%=      5-min Rain = 0
KTUR 170735Z 30006KT 09/03 A2996 RMK A01 T00850032  RH  070%=      5-min Rain = 0
KTUR 170740Z 31006KT 08/03 A2996 RMK A01 T00800032  RH  072%=      5-min Rain = 0
KTUR 170745Z 31007KT 08/03 A2996 RMK A01 T00790032  RH  073%=      5-min Rain = 0
KTUR 170750Z 31009KT 08/03 A2996 RMK A01 T00790031  RH  073%=      5-min Rain = 0
KTUR 170755Z 31008KT 08/03 A2996 RMK A01 T00790031  RH  073%=      5-min Rain = 0
KTUR 170800Z 30008KT 08/03 A2997 RMK A01 T00770030  RH  073%=      5-min Rain = 0
KTUR 170805Z 30007KT 07/03 A2996 RMK A01 T00730029  RH  074%=      5-min Rain = 0
KTUR 170810Z 31007KT 07/03 A2997 RMK A01 T00710028  RH  075%=      5-min Rain = 0
KTUR 170815Z 31008KT 07/03 A2997 RMK A01 T00710028  RH  075%=      5-min Rain = 0
KTUR 170820Z 32009KT 07/03 A2997 RMK A01 T00690027  RH  076%=      5-min Rain = 0
KTUR 170825Z 31008KT 06/03 A2997 RMK A01 T00640026  RH  078%=      5-min Rain = 0
KTUR 170830Z 30009KT 06/03 A2998 RMK A01 T00640026  RH  078%=      5-min Rain = 0
KTUR 170835Z 31008KT 07/03 A2998 RMK A01 T00650027  RH  077%=      5-min Rain = 0
KTUR 170840Z 31008KT 06/03 A2998 RMK A01 T00630027  RH  078%=      5-min Rain = 0
KTUR 170845Z 31007KT 06/03 A2998 RMK A01 T00620027  RH  079%=      5-min Rain = 0
KTUR 170850Z 31007KT 06/03 A2998 RMK A01 T00620027  RH  079%=      5-min Rain = 0
KTUR 170855Z 31007KT 06/03 A2998 RMK A01 T00620028  RH  079%=      5-min Rain = 0
KTUR 170900Z 32008KT 06/03 A2998 RMK A01 T00630029  RH  080%=      5-min Rain = 0
KTUR 170905Z 33009KT 07/03 A2998 RMK A01 T00660030  RH  079%=      5-min Rain = 0
KTUR 170910Z 32012KT 07/03 A2998 RMK A01 T00730031  RH  076%=      5-min Rain = 0
KTUR 170915Z 32013KT 08/03 A2998 RMK A01 T00780032  RH  073%=      5-min Rain = 0
KTUR 170920Z 32015KT 08/03 A2998 RMK A01 T00820031  RH  071%=      5-min Rain = 0
KTUR 170925Z 32018G23KT 09/03 A2998 RMK A01 T00910027  RH  065%=      5-min Rain = 0
KTUR 170930Z 33022G27KT 10/02 A2999 RMK A01 T00990020  RH  059%=      5-min Rain = 0
KTUR 170935Z 33019G24KT 10/02 A2999 RMK A01 T01020018  RH  057%=      5-min Rain = 0
KTUR 170940Z 33018G24KT 10/02 A2999 RMK A01 T01010018  RH  057%=      5-min Rain = 0
KTUR 170945Z 32019KT 10/02 A30 RMK A01 T01000017  RH  057%=      5-min Rain = 0
KTUR 170950Z 32018G25KT 10/02 A30 RMK A01 T01000016  RH  057%=      5-min Rain = 0
KTUR 170955Z 32019G24KT 10/01 A3001 RMK A01 T00990013  RH  056%=      5-min Rain = 0
KTUR 171000Z 32018G24KT 10/01 A3001 RMK A01 T00980010  RH  055%=      5-min Rain = 0
KTUR 171005Z 33019G26KT 10/01 A3001 RMK A01 T01000007  RH  053%=      5-min Rain = 0
KTUR 171010Z 33018G24KT 10/01 A3002 RMK A01 T01000005  RH  052%=      5-min Rain = 0
KTUR 171015Z 33018KT 10/00 A3002 RMK A01 T01000004  RH  052%=      5-min Rain = 0
KTUR 171020Z 33018KT 10/00 A3002 RMK A01 T00990002  RH  051%=      5-min Rain = 0
KTUR 171025Z 33019G25KT 10/00 A3003 RMK A01 T00990001  RH  051%=      5-min Rain = 0
KTUR 171030Z 33019G24KT 10/00 A3002 RMK A01 T01000000  RH  050%=      5-min Rain = 0
KTUR 171035Z 34019G24KT 10/00 A3002 RMK A01 T01000000  RH  050%=      5-min Rain = 0
KTUR 171040Z 33020KT 10/00 A3002 RMK A01 T00990000  RH  051%=      5-min Rain = 0
KTUR 171045Z 33019G25KT 10/00 A3002 RMK A01 T00990000  RH  051%=      5-min Rain = 0
KTUR 171050Z 33018G24KT 10/00 A3003 RMK A01 T00980000  RH  051%=      5-min Rain = 0
KTUR 171055Z 33018G23KT 10/00 A3004 RMK A01 T00970001  RH  052%=      5-min Rain = 0
KTUR 171100Z 33017KT 10/00 A3004 RMK A01 T00970001  RH  052%=      5-min Rain = 0
KTUR 171105Z 33017G22KT 10/00 A3004 RMK A01 T00970001  RH  052%=      5-min Rain = 0
KTUR 171110Z 33016KT 10/00 A3004 RMK A01 T00950001  RH  052%=      5-min Rain = 0
KTUR 171115Z 33016G22KT 09/00 A3005 RMK A01 T00940001  RH  053%=      5-min Rain = 0
KTUR 171120Z 33016KT 10/00 A3005 RMK A01 T00950002  RH  053%=      5-min Rain = 0
KTUR 171125Z 33016KT 09/00 A3005 RMK A01 T00920002  RH  054%=      5-min Rain = 0
KTUR 171130Z 33018KT 09/00 A3005 RMK A01 T00920003  RH  054%=      5-min Rain = 0
KTUR 171135Z 33019G24KT 09/00 A3006 RMK A01 T00940003  RH  054%=      5-min Rain = 0
KTUR 171140Z 33018G23KT 09/00 A3006 RMK A01 T00940004  RH  054%=      5-min Rain = 0
KTUR 171145Z 33019KT 09/00 A3007 RMK A01 T00940004  RH  054%=      5-min Rain = 0
KTUR 171150Z 33019G25KT 09/01 A3007 RMK A01 T00930005  RH  054%=      5-min Rain = 0
KTUR 171155Z 33018G23KT 09/01 A3008 RMK A01 T00910005  RH  055%=      5-min Rain = 0
KTUR 171200Z 33019G25KT 09/01 A3008 RMK A01 T00920005  RH  055%=      5-min Rain = 0
KTUR 171205Z 33018G23KT 09/01 A3008 RMK A01 T00910006  RH  056%=      5-min Rain = 0
KTUR 171210Z 33016KT 09/01 A3009 RMK A01 T00880006  RH  057%=      5-min Rain = 0
KTUR 171215Z 33015KT 09/01 A301 RMK A01 T00870006  RH  057%=      5-min Rain = 0
KTUR 171220Z 33016KT 09/01 A301 RMK A01 T00860006  RH  058%=      5-min Rain = 0
KTUR 171225Z 33016G24KT 09/01 A301 RMK A01 T00860007  RH  058%=      5-min Rain = 0
KTUR 171230Z 33016G22KT 09/01 A301 RMK A01 T00860008  RH  058%=      5-min Rain = 0
KTUR 171235Z 33017KT 09/01 A3011 RMK A01 T00850008  RH  059%=      5-min Rain = 0
KTUR 171240Z 33017KT 09/01 A3011 RMK A01 T00850009  RH  059%=      5-min Rain = 0
KTUR 171245Z 33018G24KT 09/01 A3011 RMK A01 T00850009  RH  060%=      5-min Rain = 0
KTUR 171250Z 33020G26KT 09/01 A3011 RMK A01 T00860010  RH  060%=      5-min Rain = 0
KTUR 171255Z 33019G25KT 09/01 A3011 RMK A01 T00850011  RH  060%=      5-min Rain = 0
KTUR 171300Z 33018G23KT 09/01 A3012 RMK A01 T00850011  RH  061%=      5-min Rain = 0
KTUR 171305Z 33017G22KT 08/01 A3012 RMK A01 T00840012  RH  061%=      5-min Rain = 0
KTUR 171310Z 33018KT 08/01 A3012 RMK A01 T00840012  RH  061%=      5-min Rain = 0
KTUR 171315Z 33016G22KT 08/01 A3012 RMK A01 T00830013  RH  062%=      5-min Rain = 0
KTUR 171320Z 33017KT 08/01 A3013 RMK A01 T00830013  RH  062%=      5-min Rain = 0
KTUR 171325Z 33016KT 08/01 A3013 RMK A01 T00820013  RH  062%=      5-min Rain = 0
KTUR 171330Z 33014KT 08/01 A3014 RMK A01 T00800012  RH  063%=      5-min Rain = 0
KTUR 171335Z 32015KT 08/01 A3014 RMK A01 T00790012  RH  063%=      5-min Rain = 0
KTUR 171340Z 33016KT 08/01 A3014 RMK A01 T00810013  RH  063%=      5-min Rain = 0
KTUR 171345Z 33015G20KT 08/01 A3014 RMK A01 T00820013  RH  063%=      5-min Rain = 0
KTUR 171350Z 33016KT 08/01 A3015 RMK A01 T00820013  RH  063%=      5-min Rain = 0
KTUR 171355Z 33015G20KT 08/01 A3015 RMK A01 T00820013  RH  062%=      5-min Rain = 0
KTUR 171400Z 33016KT 08/01 A3015 RMK A01 T00830013  RH  062%=      5-min Rain = 0
KTUR 171405Z 32016G21KT 08/01 A3015 RMK A01 T00840013  RH  062%=      5-min Rain = 0
KTUR 171410Z 33016G21KT 09/01 A3016 RMK A01 T00850013  RH  062%=      5-min Rain = 0
KTUR 171415Z 33015KT 09/01 A3016 RMK A01 T00850014  RH  061%=      5-min Rain = 0
KTUR 171420Z 33016KT 09/01 A3016 RMK A01 T00860014  RH  061%=      5-min Rain = 0
KTUR 171425Z 33014G20KT 09/01 A3016 RMK A01 T00870014  RH  061%=      5-min Rain = 0
KTUR 171430Z 32016G21KT 09/01 A3016 RMK A01 T00870014  RH  061%=      5-min Rain = 0
KTUR 171435Z 33016G21KT 09/01 A3016 RMK A01 T00880014  RH  060%=      5-min Rain = 0
KTUR 171440Z 33017G23KT 09/01 A3016 RMK A01 T00900014  RH  060%=      5-min Rain = 0
KTUR 171445Z 33016G21KT 09/02 A3016 RMK A01 T00910015  RH  059%=      5-min Rain = 0
KTUR 171450Z 33016KT 09/01 A3016 RMK A01 T00920014  RH  059%=      5-min Rain = 0
KTUR 171455Z 34018G25KT 09/02 A3016 RMK A01 T00940015  RH  058%=      5-min Rain = 0
KTUR 171500Z 34017G24KT 10/02 A3016 RMK A01 T00960015  RH  058%=      5-min Rain = 0
KTUR 171505Z 34019G24KT 10/02 A3016 RMK A01 T00970015  RH  057%=      5-min Rain = 0
KTUR 171510Z 34018G23KT 10/02 A3016 RMK A01 T00990015  RH  057%=      5-min Rain = 0
KTUR 171515Z 34021G26KT 10/02 A3016 RMK A01 T01000015  RH  056%=      5-min Rain = 0
KTUR 171520Z 34019G26KT 10/02 A3016 RMK A01 T01020016  RH  056%=      5-min Rain = 0
KTUR 171525Z 34019G25KT 10/02 A3017 RMK A01 T01040016  RH  055%=      5-min Rain = 0
KTUR 171530Z 34018G24KT 11/02 A3016 RMK A01 T01050016  RH  055%=      5-min Rain = 0
KTUR 171535Z 35016KT 11/02 A3016 RMK A01 T01080017  RH  054%=      5-min Rain = 0
KTUR 171540Z 34016G21KT 11/02 A3016 RMK A01 T01100017  RH  053%=      5-min Rain = 0
KTUR 171545Z 35016KT 11/02 A3016 RMK A01 T01120017  RH  053%=      5-min Rain = 0
KTUR 171550Z 34015G22KT 11/02 A3016 RMK A01 T01140018  RH  052%=      5-min Rain = 0
KTUR 171555Z 34017G22KT 11/02 A3017 RMK A01 T01140018  RH  052%=      5-min Rain = 0
KTUR 171600Z 34016G21KT 12/02 A3017 RMK A01 T01150018  RH  052%=      5-min Rain = 0
KTUR 171605Z 34017KT 11/02 A3017 RMK A01 T01140017  RH  052%=      5-min Rain = 0
KTUR 171610Z 34015KT 12/02 A3017 RMK A01 T01160018  RH  052%=      5-min Rain = 0
KTUR 171615Z 34015KT 12/02 A3017 RMK A01 T01180018  RH  051%=      5-min Rain = 0
KTUR 171620Z 34015G20KT 12/02 A3017 RMK A01 T01200019  RH  050%=      5-min Rain = 0
KTUR 171625Z 33015G20KT 12/02 A3017 RMK A01 T01210018  RH  050%=      5-min Rain = 0
KTUR 171630Z 34015KT 12/02 A3017 RMK A01 T01210018  RH  050%=      5-min Rain = 0
KTUR 171635Z 34014KT 12/02 A3016 RMK A01 T01230019  RH  049%=      5-min Rain = 0
KTUR 171640Z 34014G20KT 12/02 A3016 RMK A01 T01230018  RH  049%=      5-min Rain = 0
KTUR 171645Z 35013KT 13/02 A3016 RMK A01 T01270019  RH  048%=      5-min Rain = 0
KTUR 171650Z 34014G19KT 13/02 A3016 RMK A01 T01280019  RH  048%=      5-min Rain = 0
KTUR 171655Z 34012KT 13/02 A3017 RMK A01 T01290020  RH  048%=      5-min Rain = 0
KTUR 171700Z 34013G19KT 13/02 A3016 RMK A01 T01320020  RH  047%=      5-min Rain = 0
KTUR 171705Z 34014G19KT 13/02 A3016 RMK A01 T01320019  RH  047%=      5-min Rain = 0
KTUR 171710Z 34013KT 13/02 A3016 RMK A01 T01320019  RH  047%=      5-min Rain = 0
KTUR 171715Z 34012KT 14/02 A3016 RMK A01 T01360020  RH  046%=      5-min Rain = 0
KTUR 171720Z 34012KT 14/02 A3016 RMK A01 T01370021  RH  046%=      5-min Rain = 0
KTUR 171725Z 34013KT 14/02 A3016 RMK A01 T01380021  RH  046%=      5-min Rain = 0
KTUR 171730Z 33011KT 14/02 A3016 RMK A01 T01400022  RH  045%=      5-min Rain = 0
KTUR 171735Z 33013KT 14/02 A3015 RMK A01 T01390021  RH  045%=      5-min Rain = 0
KTUR 171740Z 33011KT 14/02 A3015 RMK A01 T01400022  RH  045%=      5-min Rain = 0
KTUR 171745Z 33013KT 14/02 A3015 RMK A01 T01420022  RH  045%=      5-min Rain = 0
KTUR 171750Z 33013G19KT 14/02 A3015 RMK A01 T01420021  RH  045%=      5-min Rain = 0
KTUR 171755Z 34014G21KT 14/02 A3015 RMK A01 T01430021  RH  044%=      5-min Rain = 0
KTUR 171800Z 34013G18KT 14/02 A3015 RMK A01 T01430021  RH  044%=      5-min Rain = 0
KTUR 171805Z 34015G20KT 15/02 A3015 RMK A01 T01460021  RH  044%=      5-min Rain = 0
KTUR 171810Z 32013G23KT 15/02 A3015 RMK A01 T01470022  RH  043%=      5-min Rain = 0
KTUR 171815Z 35012G18KT 15/02 A3015 RMK A01 T01470021  RH  043%=      5-min Rain = 0
KTUR 171820Z 34013KT 15/02 A3015 RMK A01 T01480021  RH  043%=      5-min Rain = 0
KTUR 171825Z 33013G20KT 15/02 A3015 RMK A01 T01480022  RH  043%=      5-min Rain = 0
KTUR 171830Z 34013G20KT 15/02 A3015 RMK A01 T01480021  RH  043%=      5-min Rain = 0
KTUR 171835Z 34015G21KT 15/02 A3014 RMK A01 T01490021  RH  043%=      5-min Rain = 0
KTUR 171840Z 35015G21KT 15/02 A3014 RMK A01 T01510020  RH  042%=      5-min Rain = 0
KTUR 171845Z 35016G22KT 15/02 A3014 RMK A01 T01520020  RH  041%=      5-min Rain = 0
KTUR 171850Z 35015G20KT 15/02 A3014 RMK A01 T01520020  RH  041%=      5-min Rain = 0
KTUR 171855Z 35013KT 15/02 A3013 RMK A01 T01540021  RH  041%=      5-min Rain = 0
KTUR 171900Z 34017KT 15/02 A3013 RMK A01 T01540020  RH  041%=      5-min Rain = 0
KTUR 171905Z 34012G17KT 15/02 A3013 RMK A01 T01540021  RH  041%=      5-min Rain = 0
KTUR 171910Z 34013KT 15/02 A3012 RMK A01 T01540021  RH  041%=      5-min Rain = 0
KTUR 171915Z 34013KT 16/02 A3012 RMK A01 T01560021  RH  040%=      5-min Rain = 0
KTUR 171920Z 33013KT 16/02 A3012 RMK A01 T01550019  RH  040%=      5-min Rain = 0
KTUR 171925Z 33013G18KT 16/02 A3011 RMK A01 T01560019  RH  040%=      5-min Rain = 0
KTUR 171930Z 32011G17KT 16/02 A3011 RMK A01 T01560019  RH  040%=      5-min Rain = 0
KTUR 171935Z 35012KT 16/02 A3011 RMK A01 T01580019  RH  040%=      5-min Rain = 0
KTUR 171940Z 35011KT 16/02 A301 RMK A01 T01600020  RH  039%=      5-min Rain = 0
KTUR 171945Z 33013KT 16/02 A301 RMK A01 T01610017  RH  038%=      5-min Rain = 0
KTUR 171950Z 33013KT 16/02 A301 RMK A01 T01580015  RH  038%=      5-min Rain = 0
KTUR 171955Z 35013KT 16/02 A3009 RMK A01 T01600015  RH  038%=      5-min Rain = 0
KTUR 172000Z 36013KT 16/01 A3009 RMK A01 T01620013  RH  037%=      5-min Rain = 0
KTUR 172005Z 34012G17KT 16/01 A3009 RMK A01 T01620014  RH  037%=      5-min Rain = 0
KTUR 172010Z 35009KT 16/01 A3008 RMK A01 T01610013  RH  037%=      5-min Rain = 0
KTUR 172015Z 34012KT 16/01 A3008 RMK A01 T01630011  RH  036%=      5-min Rain = 0
KTUR 172020Z 34013KT 16/01 A3008 RMK A01 T01610011  RH  036%=      5-min Rain = 0
KTUR 172025Z 33010KT 16/01 A3008 RMK A01 T01620010  RH  036%=      5-min Rain = 0
KTUR 172030Z 33009G14KT 16/01 A3008 RMK A01 T01630011  RH  036%=      5-min Rain = 0
KTUR 172035Z 35011KT 17/01 A3007 RMK A01 T01650009  RH  035%=      5-min Rain = 0
KTUR 172040Z 36008KT 16/01 A3007 RMK A01 T01640011  RH  036%=      5-min Rain = 0
KTUR 172045Z 34006G11KT 16/01 A3007 RMK A01 T01640010  RH  036%=      5-min Rain = 0
KTUR 172050Z 33005KT 16/01 A3007 RMK A01 T01620010  RH  036%=      5-min Rain = 0
KTUR 172055Z 33007KT 16/01 A3007 RMK A01 T01620011  RH  036%=      5-min Rain = 0
KTUR 172100Z 35005KT 17/01 A3007 RMK A01 T01650009  RH  035%=      5-min Rain = 0
KTUR 172105Z 01007KT 17/01 A3007 RMK A01 T01670011  RH  035%=      5-min Rain = 0
KTUR 172110Z 36005KT 17/01 A3007 RMK A01 T01680011  RH  035%=      5-min Rain = 0
KTUR 172115Z 34005KT 17/01 A3007 RMK A01 T01690010  RH  035%=      5-min Rain = 0
KTUR 172120Z 34007G12KT 17/01 A3007 RMK A01 T01690007  RH  034%=      5-min Rain = 0
KTUR 172125Z 34008KT 17/01 A3007 RMK A01 T01670006  RH  034%=      5-min Rain = 0
KTUR 172130Z 34009KT 17/01 A3006 RMK A01 T01670007  RH  034%=      5-min Rain = 0
KTUR 172135Z 33005KT 17/01 A3007 RMK A01 T01660007  RH  035%=      5-min Rain = 0
KTUR 172140Z 35006KT 17/01 A3007 RMK A01 T01670008  RH  034%=      5-min Rain = 0
KTUR 172145Z 36006KT 17/01 A3006 RMK A01 T01660008  RH  035%=      5-min Rain = 0
KTUR 172150Z 34005KT 17/01 A3006 RMK A01 T01660009  RH  035%=      5-min Rain = 0
KTUR 172155Z 35004KT 17/01 A3006 RMK A01 T01670008  RH  035%=      5-min Rain = 0
KTUR 172200Z 33006KT 17/01 A3006 RMK A01 T01670007  RH  034%=      5-min Rain = 0
KTUR 172205Z 34007KT 17/01 A3006 RMK A01 T01660006  RH  034%=      5-min Rain = 0
KTUR 172210Z 32006KT 17/01 A3006 RMK A01 T01650009  RH  035%=      5-min Rain = 0
KTUR 172215Z 34006KT 17/01 A3006 RMK A01 T01650008  RH  035%=      5-min Rain = 0
KTUR 172220Z 35005KT 17/01 A3006 RMK A01 T01660008  RH  035%=      5-min Rain = 0
KTUR 172225Z 01004KT 17/01 A3006 RMK A01 T01650007  RH  035%=      5-min Rain = 0
KTUR 172230Z 33004KT 17/01 A3006 RMK A01 T01650007  RH  035%=      5-min Rain = 0
KTUR 172235Z 31004KT 16/01 A3006 RMK A01 T01640007  RH  035%=      5-min Rain = 0
KTUR 172240Z 29002KT 16/01 A3006 RMK A01 T01640007  RH  035%=      5-min Rain = 0
KTUR 172245Z 30004KT 16/01 A3006 RMK A01 T01630005  RH  035%=      5-min Rain = 0
KTUR 172250Z 32004KT 16/01 A3007 RMK A01 T01620006  RH  035%=      5-min Rain = 0
KTUR 172255Z 33005KT 16/01 A3007 RMK A01 T01590008  RH  036%=      5-min Rain = 0
KTUR 172300Z 31005KT 16/01 A3007 RMK A01 T01570008  RH  037%=      5-min Rain = 0
KTUR 172305Z 31004KT 16/01 A3007 RMK A01 T01550007  RH  037%=      5-min Rain = 0
KTUR 172310Z 30003KT 15/01 A3007 RMK A01 T01540007  RH  037%=      5-min Rain = 0
KTUR 172315Z 30003KT 15/01 A3007 RMK A01 T01520006  RH  038%=      5-min Rain = 0
KTUR 172320Z 29003KT 15/00 A3007 RMK A01 T01490004  RH  038%=      5-min Rain = 0
KTUR 172325Z 30003KT 15/00 A3007 RMK A01 T01470004  RH  038%=      5-min Rain = 0
KTUR 172330Z 29002KT 15/00 A3007 RMK A01 T01470004  RH  038%=      5-min Rain = 0
KTUR 172335Z 29002KT 14/00 A3008 RMK A01 T01440004  RH  039%=      5-min Rain = 0
KTUR 172340Z 29002KT 14/00 A3007 RMK A01 T01440004  RH  039%=      5-min Rain = 0
KTUR 172345Z 29002KT 14/00 A3008 RMK A01 T01440004  RH  039%=      5-min Rain = 0
KTUR 172350Z 29002KT 14/00 A3008 RMK A01 T01420004  RH  039%=      5-min Rain = 0
KTUR 172355Z 28002KT 14/00 A3007 RMK A01 T01430004  RH  039%=      5-min Rain = 0
KTUR 180000Z 28002KT 14/01 A3007 RMK A01 T01390005  RH  040%=      5-min Rain = 0
KTUR 180005Z 28002KT 14/01 A3007 RMK A01 T01400006  RH  040%=      5-min Rain = 0
KTUR 180010Z 28001KT 14/01 A3007 RMK A01 T01410006  RH  040%=      5-min Rain = 0
KTUR 180015Z 28002KT 14/01 A3007 RMK A01 T01410006  RH  040%=      5-min Rain = 0
KTUR 180020Z 27002KT 14/01 A3007 RMK A01 T01410006  RH  040%=      5-min Rain = 0
KTUR 180025Z 27001KT 14/01 A3008 RMK A01 T01400006  RH  041%=      5-min Rain = 0
KTUR 180030Z 26002KT 14/01 A3008 RMK A01 T01390007  RH  041%=      5-min Rain = 0
KTUR 180035Z 26001KT 14/01 A3008 RMK A01 T01370007  RH  041%=      5-min Rain = 0
KTUR 180040Z 25001KT 14/01 A3008 RMK A01 T01360007  RH  042%=      5-min Rain = 0
KTUR 180045Z 23001KT 13/01 A3008 RMK A01 T01260007  RH  045%=      5-min Rain = 0
KTUR 180050Z 22001KT 12/01 A3008 RMK A01 T01220006  RH  045%=      5-min Rain = 0
KTUR 180055Z 22002KT 12/01 A3008 RMK A01 T01220007  RH  046%=      5-min Rain = 0
KTUR 180100Z 21002KT 13/01 A3008 RMK A01 T01280007  RH  044%=      5-min Rain = 0
KTUR 180105Z 20003KT 12/01 A3008 RMK A01 T01220006  RH  045%=      5-min Rain = 0
KTUR 180110Z 20002KT 12/01 A3008 RMK A01 T01170007  RH  047%=      5-min Rain = 0
KTUR 180115Z 20002KT 12/01 A3008 RMK A01 T01190006  RH  046%=      5-min Rain = 0
KTUR 180120Z 20002KT 12/00 A3008 RMK A01 T01150004  RH  047%=      5-min Rain = 0
KTUR 180125Z 21002KT 11/01 A3008 RMK A01 T01130005  RH  048%=      5-min Rain = 0
KTUR 180130Z 23002KT 12/01 A3008 RMK A01 T01200007  RH  047%=      5-min Rain = 0
KTUR 180135Z 23003KT 12/01 A3009 RMK A01 T01190008  RH  047%=      5-min Rain = 0
KTUR 180140Z 23002KT 12/01 A3009 RMK A01 T01190008  RH  047%=      5-min Rain = 0
KTUR 180145Z 23003KT 11/01 A3009 RMK A01 T01140008  RH  049%=      5-min Rain = 0
KTUR 180150Z 22006KT 10/01 A3009 RMK A01 T01030007  RH  052%=      5-min Rain = 0
KTUR 180155Z 23007KT 09/01 A3009 RMK A01 T00890007  RH  057%=      5-min Rain = 0
KTUR 180200Z 23008KT 09/01 A3009 RMK A01 T00850006  RH  058%=      5-min Rain = 0
KTUR 180205Z 23008KT 09/01 A3009 RMK A01 T00850006  RH  058%=      5-min Rain = 0
KTUR 180210Z 24008KT 09/01 A301 RMK A01 T00850006  RH  058%=      5-min Rain = 0
KTUR 180215Z 24008KT 09/01 A301 RMK A01 T00860007  RH  058%=      5-min Rain = 0
KTUR 180220Z 24008KT 09/01 A3009 RMK A01 T00870007  RH  058%=      5-min Rain = 0
KTUR 180225Z 24008KT 09/01 A3009 RMK A01 T00870006  RH  057%=      5-min Rain = 0
KTUR 180230Z 24007KT 09/01 A3009 RMK A01 T00850006  RH  058%=      5-min Rain = 0
KTUR 180235Z 24007KT 08/01 A3009 RMK A01 T00830006  RH  059%=      5-min Rain = 0
KTUR 180240Z 23007KT 08/01 A3009 RMK A01 T00800006  RH  060%=      5-min Rain = 0
KTUR 180245Z 23007KT 08/01 A301 RMK A01 T00790006  RH  061%=      5-min Rain = 0
KTUR 180250Z 23008KT 08/01 A3009 RMK A01 T00770005  RH  061%=      5-min Rain = 0
KTUR 180255Z 23008KT 08/01 A3009 RMK A01 T00760005  RH  061%=      5-min Rain = 0
KTUR 180300Z 23008KT 08/00 A3009 RMK A01 T00750004  RH  061%=      5-min Rain = 0
KTUR 180305Z 23008KT 07/00 A3009 RMK A01 T00720003  RH  062%=      5-min Rain = 0
KTUR 180310Z 23007KT 07/00 A3009 RMK A01 T00720003  RH  062%=      5-min Rain = 0
KTUR 180315Z 23007KT 07/00 A3009 RMK A01 T00710003  RH  063%=      5-min Rain = 0
KTUR 180320Z 23007KT 07/00 A3009 RMK A01 T00710003  RH  063%=      5-min Rain = 0
KTUR 180325Z 23008KT 07/00 A3009 RMK A01 T00720004  RH  063%=      5-min Rain = 0
KTUR 180330Z 23008KT 07/01 A3009 RMK A01 T00740005  RH  062%=      5-min Rain = 0
KTUR 180335Z 23008KT 08/01 A301 RMK A01 T00770005  RH  061%=      5-min Rain = 0
KTUR 180340Z 23007KT 08/01 A3009 RMK A01 T00760005  RH  061%=      5-min Rain = 0
KTUR 180345Z 23007KT 07/01 A3009 RMK A01 T00730005  RH  062%=      5-min Rain = 0
KTUR 180350Z 23007KT 07/01 A3009 RMK A01 T00740005  RH  062%=      5-min Rain = 0
KTUR 180355Z 23007KT 07/00 A3009 RMK A01 T00740004  RH  062%=      5-min Rain = 0
KTUR 180400Z 23008KT 07/00 A3009 RMK A01 T00690003  RH  063%=      5-min Rain = 0
KTUR 180405Z 23008KT 06/00 A3008 RMK A01 T00640002  RH  065%=      5-min Rain = 0
KTUR 180410Z 23008KT 06/00 A3008 RMK A01 T00620001  RH  066%=      5-min Rain = 0
KTUR 180415Z 23008KT 06/00 A3008 RMK A01 T00610001  RH  066%=      5-min Rain = 0
KTUR 180420Z 23008KT 06/00 A3008 RMK A01 T00610001  RH  066%=      5-min Rain = 0
KTUR 180425Z 23009KT 06/00 A3007 RMK A01 T00610001  RH  066%=      5-min Rain = 0
KTUR 180430Z 23009KT 06/00 A3007 RMK A01 T00610001  RH  066%=      5-min Rain = 0
KTUR 180435Z 23009KT 06/00 A3007 RMK A01 T00620001  RH  066%=      5-min Rain = 0
KTUR 180440Z 23008KT 06/00 A3007 RMK A01 T00640002  RH  065%=      5-min Rain = 0
KTUR 180445Z 23008KT 07/00 A3006 RMK A01 T00670003  RH  065%=      5-min Rain = 0
KTUR 180450Z 23008KT 07/00 A3006 RMK A01 T00670003  RH  065%=      5-min Rain = 0
KTUR 180455Z 23008KT 07/00 A3006 RMK A01 T00650002  RH  065%=      5-min Rain = 0
KTUR 180500Z 23008KT 06/00 A3006 RMK A01 T00630001  RH  065%=      5-min Rain = 0
KTUR 180505Z 23008KT 06/00 A3005 RMK A01 T00620002  RH  066%=      5-min Rain = 0
KTUR 180510Z 23009KT 06/00 A3005 RMK A01 T00640002  RH  065%=      5-min Rain = 0
KTUR 180515Z 23009KT 06/00 A3005 RMK A01 T00640003  RH  066%=      5-min Rain = 0
KTUR 180520Z 23009KT 07/00 A3005 RMK A01 T00650003  RH  065%=      5-min Rain = 0
KTUR 180525Z 23008KT 07/00 A3005 RMK A01 T00670004  RH  065%=      5-min Rain = 0
KTUR 180530Z 23009KT 07/00 A3004 RMK A01 T00670003  RH  064%=      5-min Rain = 0
KTUR 180535Z 23009KT 07/00 A3004 RMK A01 T00670003  RH  064%=      5-min Rain = 0
KTUR 180540Z 23009KT 07/00 A3004 RMK A01 T00680004  RH  064%=      5-min Rain = 0
KTUR 180545Z 23008KT 07/00 A3004 RMK A01 T00670003  RH  065%=      5-min Rain = 0
KTUR 180550Z 23008KT 07/00 A3004 RMK A01 T00660003  RH  065%=      5-min Rain = 0
KTUR 180555Z 23008KT 07/00 A3004 RMK A01 T00650003  RH  065%=      5-min Rain = 0

Page generated in 0.0092 seconds.